createdAt,value
2022-12-04T00:00:08.962Z,42.60
2022-12-04T00:02:36.272Z,42.78
2022-12-04T00:05:07.557Z,39.95
2022-12-04T00:07:34.968Z,42.78
2022-12-04T00:10:02.724Z,44.35
2022-12-04T00:12:29.753Z,44.67
2022-12-04T00:17:46.983Z,43.90
2022-12-04T00:20:13.930Z,35.17
2022-12-04T00:22:40.818Z,44.80
2022-12-04T00:25:08.151Z,43.83
2022-12-04T00:27:35.110Z,43.30
2022-12-04T00:30:02.376Z,42.47
2022-12-04T00:32:30.493Z,43.60
2022-12-04T00:34:57.474Z,41.90
2022-12-04T00:37:24.311Z,45.85
2022-12-04T00:39:51.090Z,46.28
2022-12-04T00:42:17.979Z,41.53
2022-12-04T00:44:44.832Z,43.22
2022-12-04T00:47:11.699Z,42.85
2022-12-04T00:49:38.515Z,39.88
2022-12-04T00:52:05.343Z,39.17
2022-12-04T00:54:32.182Z,42.45
2022-12-04T00:56:59.039Z,48.10
2022-12-04T00:59:25.895Z,41.08
2022-12-04T01:01:52.782Z,44.38
2022-12-04T01:04:19.682Z,45.17
2022-12-04T01:06:47.184Z,46.53
2022-12-04T01:09:14.009Z,43.85
2022-12-04T01:11:40.800Z,41.63
2022-12-04T01:14:07.666Z,46.80
2022-12-04T01:16:37.546Z,43.22
2022-12-04T01:19:06.407Z,40.97
2022-12-04T01:21:33.503Z,42.03
2022-12-04T01:24:00.538Z,47.60
2022-12-04T01:26:27.892Z,43.53
2022-12-04T01:28:54.760Z,45.40
2022-12-04T01:31:22.622Z,49.42
2022-12-04T01:33:50.189Z,49.45
2022-12-04T01:36:22.694Z,46.30
2022-12-04T01:38:49.709Z,46.90
2022-12-04T01:41:20.253Z,45.53
2022-12-04T01:44:06.490Z,49.33
2022-12-04T01:46:33.345Z,50.88
2022-12-04T01:49:00.638Z,47.05
2022-12-04T01:51:34.582Z,47.53
2022-12-04T01:54:05.063Z,45.72
2022-12-04T01:56:37.082Z,45.25
2022-12-04T01:59:07.111Z,48.97
2022-12-04T02:01:42.705Z,46.42
2022-12-04T02:04:09.555Z,48.63
2022-12-04T02:06:36.376Z,45.88
2022-12-04T02:09:03.832Z,49.78
2022-12-04T02:11:42.803Z,46.10
2022-12-04T02:14:15.357Z,45.15
2022-12-04T02:16:53.709Z,46.60
2022-12-04T02:19:34.268Z,45.80
2022-12-04T02:22:06.122Z,45.40
2022-12-04T02:24:50.003Z,46.50
2022-12-04T02:27:39.433Z,46.45
2022-12-04T02:30:09.953Z,46.58
2022-12-04T02:32:43.789Z,48.60
2022-12-04T02:35:21.393Z,43.72
2022-12-04T02:37:56.699Z,50.15
2022-12-04T02:40:31.363Z,53.53
2022-12-04T02:43:09.181Z,46.92
2022-12-04T02:45:44.697Z,45.20
2022-12-04T02:48:14.655Z,45.20
2022-12-04T02:50:41.841Z,48.20
2022-12-04T02:53:37.292Z,46.35
2022-12-04T02:56:10.702Z,45.63
2022-12-04T02:58:58.250Z,50.88
2022-12-04T03:01:41.948Z,49.60
2022-12-04T03:04:19.941Z,51.17
2022-12-04T03:06:52.853Z,49.53
2022-12-04T03:09:29.944Z,44.78
2022-12-04T03:12:05.684Z,48.10
2022-12-04T03:14:42.584Z,46.08
2022-12-04T03:17:20.162Z,46.28
2022-12-04T03:19:53.568Z,46.60
2022-12-04T03:22:22.038Z,46.92
2022-12-04T03:24:54.615Z,49.40
2022-12-04T03:27:48.174Z,54.38
2022-12-04T03:30:19.229Z,48.55
2022-12-04T03:33:05.832Z,53.17
2022-12-04T03:35:46.981Z,46.35
2022-12-04T03:38:41.593Z,46.20
2022-12-04T03:41:15.131Z,49.78
2022-12-04T03:43:53.581Z,50.97
2022-12-04T03:46:49.459Z,51.15
2022-12-04T03:49:24.213Z,48.60
2022-12-04T03:52:45.775Z,47.28
2022-12-04T03:55:32.784Z,48.10
2022-12-04T03:58:06.677Z,45.65
2022-12-04T04:00:39.633Z,47.53
2022-12-04T04:03:17.987Z,49.10
2022-12-04T04:05:49.120Z,47.97
2022-12-04T04:08:29.670Z,48.08
2022-12-04T04:11:14.614Z,45.83
2022-12-04T04:14:05.709Z,48.72
2022-12-04T04:16:54.093Z,46.80
2022-12-04T04:19:40.907Z,52.40
2022-12-04T04:22:36.820Z,47.15
2022-12-04T04:25:07.830Z,50.47
2022-12-04T04:27:34.708Z,48.17
2022-12-04T04:30:01.853Z,45.88
2022-12-04T04:33:26.279Z,46.22
2022-12-04T04:36:08.711Z,49.30
2022-12-04T04:38:43.602Z,44.47
2022-12-04T04:41:19.423Z,43.08
2022-12-04T04:43:52.134Z,47.88
2022-12-04T04:46:29.018Z,46.92
2022-12-04T04:49:00.419Z,44.90
2022-12-04T04:51:31.188Z,46.13
2022-12-04T04:54:00.814Z,47.78
2022-12-04T04:58:55.236Z,46.78
2022-12-04T05:01:26.711Z,45.95
2022-12-04T05:03:53.628Z,48.22
2022-12-04T05:06:20.742Z,44.72
2022-12-04T05:08:49.322Z,46.47
2022-12-04T05:11:17.312Z,48.50
2022-12-04T05:13:44.491Z,48.78
2022-12-04T05:16:14.771Z,53.17
2022-12-04T05:19:02.274Z,46.90
2022-12-04T05:21:31.703Z,45.33
2022-12-04T05:23:58.562Z,45.42
2022-12-04T05:26:26.165Z,45.20
2022-12-04T05:28:53.037Z,47.97
2022-12-04T05:31:20.043Z,46.65
2022-12-04T05:33:46.950Z,46.78
2022-12-04T05:36:13.795Z,46.17
2022-12-04T05:38:40.690Z,48.70
2022-12-04T05:41:08.114Z,47.95
2022-12-04T05:43:35.157Z,44.22
2022-12-04T05:46:04.277Z,45.55
2022-12-04T05:48:31.757Z,49.35
2022-12-04T05:50:58.606Z,45.03
2022-12-04T05:53:25.407Z,45.38
2022-12-04T05:56:00.045Z,46.08
2022-12-04T05:58:27.050Z,43.05
2022-12-04T06:00:54.232Z,43.85
2022-12-04T06:03:21.461Z,43.15
2022-12-04T06:05:48.404Z,48.08
2022-12-04T06:08:15.557Z,46.78
2022-12-04T06:10:42.732Z,46.60
2022-12-04T06:13:09.558Z,45.50
2022-12-04T06:15:40.515Z,47.90
2022-12-04T06:18:08.157Z,44.35
2022-12-04T06:20:35.419Z,45.00
2022-12-04T06:23:02.646Z,49.08
2022-12-04T06:25:29.720Z,45.85
2022-12-04T06:27:56.592Z,42.40
2022-12-04T06:30:23.694Z,41.05
2022-12-04T06:32:50.476Z,41.65
2022-12-04T06:35:17.360Z,43.22
2022-12-04T06:37:44.294Z,46.63
2022-12-04T06:40:11.533Z,44.83
2022-12-04T06:42:38.427Z,43.10
2022-12-04T06:45:06.590Z,43.50
2022-12-04T06:47:35.128Z,43.92
2022-12-04T06:50:02.403Z,47.03
2022-12-04T06:52:31.821Z,42.13
2022-12-04T06:54:59.109Z,50.42
2022-12-04T06:57:25.996Z,42.67
2022-12-04T06:59:52.854Z,42.17
2022-12-04T07:02:19.912Z,45.80
2022-12-04T07:04:46.822Z,43.55
2022-12-04T07:07:13.670Z,41.28
2022-12-04T07:09:40.527Z,49.30
2022-12-04T07:12:07.490Z,45.60
2022-12-04T07:14:34.343Z,40.60
2022-12-04T07:17:01.304Z,45.90
2022-12-04T07:19:28.203Z,47.80
2022-12-04T07:21:55.064Z,43.03
2022-12-04T07:24:21.874Z,46.97
2022-12-04T07:26:48.765Z,44.67
2022-12-04T07:29:15.613Z,43.97
2022-12-04T07:31:46.635Z,43.80
2022-12-04T07:34:13.471Z,44.47
2022-12-04T07:36:40.924Z,47.70
2022-12-04T07:39:08.172Z,40.00
2022-12-04T07:41:35.569Z,41.78
2022-12-04T07:44:02.718Z,38.92
2022-12-04T07:46:29.767Z,44.15
2022-12-04T07:48:57.956Z,39.13
2022-12-04T07:51:28.705Z,49.13
2022-12-04T07:54:03.843Z,44.50
2022-12-04T07:56:32.035Z,40.95
2022-12-04T07:59:00.216Z,45.33
2022-12-04T08:01:27.528Z,41.80
2022-12-04T08:03:57.154Z,46.55
2022-12-04T08:08:52.474Z,45.53
2022-12-04T08:11:22.594Z,43.08
2022-12-04T08:14:00.989Z,44.72
2022-12-04T08:16:29.592Z,45.08
2022-12-04T08:18:56.869Z,38.77
2022-12-04T08:21:37.506Z,45.35
2022-12-04T08:24:08.028Z,47.70
2022-12-04T08:26:37.528Z,43.58
2022-12-04T08:29:05.911Z,40.60
2022-12-04T08:31:35.496Z,38.90
2022-12-04T08:34:05.296Z,47.63
2022-12-04T08:38:59.441Z,44.90
2022-12-04T08:41:32.453Z,40.95
2022-12-04T08:44:04.085Z,43.15
2022-12-04T08:46:33.717Z,43.05
2022-12-04T08:51:30.910Z,42.50
2022-12-04T08:54:00.336Z,41.55
2022-12-04T08:56:31.465Z,42.92
2022-12-04T08:58:59.353Z,41.92
2022-12-04T09:01:30.361Z,42.30
2022-12-04T09:04:01.086Z,45.15
2022-12-04T09:06:34.822Z,49.05
2022-12-04T09:09:02.466Z,44.63
2022-12-04T09:11:33.738Z,43.05
2022-12-04T09:14:04.790Z,46.22
2022-12-04T09:16:38.404Z,43.78
2022-12-04T09:19:06.561Z,42.88
2022-12-04T09:21:34.203Z,44.40
2022-12-04T09:24:01.473Z,44.72
2022-12-04T09:26:32.006Z,48.17
2022-12-04T09:29:02.447Z,46.03
2022-12-04T09:31:32.325Z,49.85
2022-12-04T09:34:01.397Z,39.97
2022-12-04T09:36:28.938Z,46.50
2022-12-04T09:38:56.091Z,45.78
2022-12-04T09:41:28.882Z,39.30
2022-12-04T09:43:58.465Z,38.28
2022-12-04T09:49:11.672Z,42.83
2022-12-04T09:51:40.506Z,51.75
2022-12-04T09:54:23.857Z,48.97
2022-12-04T09:57:05.724Z,42.47
2022-12-04T09:59:33.225Z,41.25
2022-12-04T10:02:36.874Z,44.40
2022-12-04T10:05:05.892Z,47.00
2022-12-04T10:07:48.831Z,43.03
2022-12-04T10:10:50.862Z,40.95
2022-12-04T10:13:36.441Z,46.88
2022-12-04T10:16:26.089Z,42.90
2022-12-04T10:19:11.822Z,44.72
2022-12-04T10:21:48.189Z,49.13
2022-12-04T10:24:35.064Z,42.03
2022-12-04T10:27:10.658Z,41.30
2022-12-04T10:29:38.977Z,43.00
2022-12-04T10:32:21.958Z,42.28
2022-12-04T10:34:52.490Z,37.33
2022-12-04T10:37:20.101Z,40.60
2022-12-04T10:40:12.747Z,42.05
2022-12-04T10:42:47.531Z,40.90
2022-12-04T10:45:14.555Z,36.80
2022-12-04T10:47:47.829Z,40.22
2022-12-04T10:50:18.323Z,38.42
2022-12-04T10:52:46.239Z,42.78
2022-12-04T10:55:13.937Z,36.28
2022-12-04T10:57:43.422Z,35.10
2022-12-04T11:00:26.148Z,34.15
2022-12-04T11:02:55.243Z,40.78
2022-12-04T11:05:55.417Z,37.60
2022-12-04T11:08:31.278Z,36.45
2022-12-04T11:11:06.360Z,35.60
2022-12-04T11:13:33.657Z,35.22
2022-12-04T11:16:00.847Z,35.70
2022-12-04T11:18:33.497Z,32.42
2022-12-04T11:21:15.174Z,33.42
2022-12-04T11:23:51.602Z,34.67
2022-12-04T11:26:37.825Z,28.55
2022-12-04T11:29:06.055Z,31.63
2022-12-04T11:31:33.632Z,32.10
2022-12-04T11:34:03.175Z,31.13
2022-12-04T11:36:41.491Z,30.67
2022-12-04T11:39:20.381Z,31.67
2022-12-04T11:41:58.692Z,30.42
2022-12-04T11:44:28.827Z,27.50
2022-12-04T11:47:02.009Z,28.55
2022-12-04T11:49:31.302Z,28.27
2022-12-04T11:52:31.105Z,26.02
2022-12-04T11:55:15.195Z,26.33
2022-12-04T11:57:51.954Z,28.02
2022-12-04T12:00:21.090Z,27.65
2022-12-04T12:03:19.226Z,28.50
2022-12-04T12:06:20.145Z,28.17
2022-12-04T12:08:58.994Z,27.15
2022-12-04T12:11:36.248Z,26.92
2022-12-04T12:14:19.934Z,26.65
2022-12-04T12:16:57.676Z,24.88
2022-12-04T12:19:39.176Z,26.17
2022-12-04T12:22:26.189Z,27.15
2022-12-04T12:25:30.692Z,27.30
2022-12-04T12:28:15.991Z,27.98
2022-12-04T12:31:17.947Z,25.77
2022-12-04T12:34:04.158Z,26.13
2022-12-04T12:36:43.457Z,29.65
2022-12-04T12:39:23.446Z,23.38
2022-12-04T12:41:54.427Z,27.02
2022-12-04T12:44:51.963Z,29.30
2022-12-04T12:47:27.306Z,24.85
2022-12-04T12:50:03.396Z,25.58
2022-12-04T12:52:54.732Z,29.15
2022-12-04T12:55:27.190Z,28.73
2022-12-04T12:58:14.231Z,29.42
2022-12-04T13:00:54.988Z,28.80
2022-12-04T13:03:48.074Z,25.80
2022-12-04T13:06:32.729Z,30.52
2022-12-04T13:09:16.647Z,25.85
2022-12-04T13:11:47.849Z,32.00
2022-12-04T13:14:15.150Z,30.00
2022-12-04T13:16:56.821Z,28.13
2022-12-04T13:19:29.608Z,29.50
2022-12-04T13:22:30.764Z,29.90
2022-12-04T13:25:21.909Z,25.43
2022-12-04T13:30:41.427Z,30.27
2022-12-04T13:33:23.376Z,29.08
2022-12-04T13:36:21.046Z,30.67
2022-12-04T13:39:24.921Z,29.45
2022-12-04T13:42:06.357Z,26.98
2022-12-04T13:44:35.367Z,26.02
2022-12-04T13:47:06.654Z,26.20
2022-12-04T13:49:42.184Z,27.17
2022-12-04T13:52:36.010Z,30.02
2022-12-04T13:55:02.972Z,27.17
2022-12-04T13:57:29.843Z,28.13
2022-12-04T14:00:32.617Z,30.38
2022-12-04T14:03:05.793Z,30.42
2022-12-04T14:05:43.347Z,28.60
2022-12-04T14:08:19.374Z,30.00
2022-12-04T14:11:00.905Z,31.10
2022-12-04T14:13:55.762Z,29.90
2022-12-04T14:16:43.789Z,31.58
2022-12-04T14:19:35.617Z,29.58
2022-12-04T14:22:02.769Z,31.50
2022-12-04T14:24:39.897Z,30.35
2022-12-04T14:27:31.498Z,30.60
2022-12-04T14:29:59.894Z,31.75
2022-12-04T14:32:30.975Z,29.45
2022-12-04T14:34:59.184Z,31.40
2022-12-04T14:37:40.171Z,30.30
2022-12-04T14:40:20.795Z,33.13
2022-12-04T14:42:49.052Z,34.78
2022-12-04T14:45:46.720Z,33.20
2022-12-04T14:48:32.246Z,29.17
2022-12-04T14:51:36.146Z,33.15
2022-12-04T14:54:33.372Z,33.25
2022-12-04T14:57:42.441Z,35.47
2022-12-04T15:00:18.577Z,29.58
2022-12-04T15:02:48.064Z,33.95
2022-12-04T15:05:28.410Z,32.10
2022-12-04T15:08:02.175Z,33.47
2022-12-04T15:10:51.612Z,31.15
2022-12-04T15:13:33.196Z,35.15
2022-12-04T15:16:20.975Z,33.10
2022-12-04T15:18:59.415Z,37.08
2022-12-04T15:21:40.831Z,35.53
2022-12-04T15:24:09.906Z,32.35
2022-12-04T15:26:38.607Z,32.80
2022-12-04T15:29:08.333Z,36.07
2022-12-04T15:31:43.602Z,30.75
2022-12-04T15:34:17.113Z,32.35
2022-12-04T15:37:07.905Z,33.78
2022-12-04T15:39:36.603Z,35.97
2022-12-04T15:42:07.531Z,32.30
2022-12-04T15:44:36.647Z,35.97
2022-12-04T15:47:21.731Z,33.00
2022-12-04T15:49:48.736Z,33.35
2022-12-04T15:52:18.211Z,35.03
2022-12-04T15:55:00.135Z,33.53
2022-12-04T15:57:36.883Z,36.95
2022-12-04T16:00:06.952Z,35.45
2022-12-04T16:02:41.779Z,30.48
2022-12-04T16:05:35.467Z,32.35
2022-12-04T16:08:29.294Z,32.65
2022-12-04T16:11:05.408Z,31.83
2022-12-04T16:13:35.312Z,33.65
2022-12-04T16:16:07.303Z,32.45
2022-12-04T16:18:34.717Z,33.03
2022-12-04T16:21:01.738Z,33.63
2022-12-04T16:23:28.741Z,34.05
2022-12-04T16:25:55.643Z,32.15
2022-12-04T16:28:22.593Z,38.13
2022-12-04T16:30:52.578Z,34.35
2022-12-04T16:33:19.686Z,29.17
2022-12-04T16:35:46.553Z,31.27
2022-12-04T16:38:17.084Z,33.95
2022-12-04T16:40:45.857Z,29.58
2022-12-04T16:43:15.445Z,36.97
2022-12-04T16:48:20.402Z,30.08
2022-12-04T16:50:47.810Z,32.17
2022-12-04T16:53:21.782Z,30.60
2022-12-04T16:55:50.778Z,30.50
2022-12-04T16:58:19.793Z,31.90
2022-12-04T17:00:53.352Z,31.73
2022-12-04T17:03:25.264Z,30.50
2022-12-04T17:05:52.384Z,28.35
2022-12-04T17:08:19.587Z,30.95
2022-12-04T17:10:46.899Z,27.25
2022-12-04T17:13:13.863Z,28.63
2022-12-04T17:15:40.739Z,31.38
2022-12-04T17:18:12.905Z,33.78
2022-12-04T17:20:46.314Z,32.13
2022-12-04T17:23:13.386Z,33.13
2022-12-04T17:25:40.688Z,30.80
2022-12-04T17:28:07.642Z,33.65
2022-12-04T17:30:36.443Z,31.73
2022-12-04T17:33:04.218Z,31.95
2022-12-04T17:35:31.556Z,29.92
2022-12-04T17:38:02.311Z,29.00
2022-12-04T17:40:32.952Z,31.40
2022-12-04T17:43:00.051Z,30.00
2022-12-04T17:45:27.446Z,29.48
2022-12-04T17:47:54.343Z,30.92
2022-12-04T17:50:21.318Z,31.27
2022-12-04T17:52:48.345Z,31.92
2022-12-04T17:55:15.302Z,36.85
2022-12-04T17:57:42.142Z,32.53
2022-12-04T18:00:09.445Z,32.13
2022-12-04T18:02:37.548Z,34.88
2022-12-04T18:05:04.656Z,29.50
2022-12-04T18:07:31.803Z,29.35
2022-12-04T18:09:59.049Z,30.70
2022-12-04T18:12:26.132Z,28.30
2022-12-04T18:14:53.554Z,28.95
2022-12-04T18:17:21.754Z,31.77
2022-12-04T18:19:48.670Z,30.70
2022-12-04T18:22:15.535Z,32.47
2022-12-04T18:24:42.462Z,31.67
2022-12-04T18:27:09.636Z,29.30
2022-12-04T18:29:37.227Z,31.38
2022-12-04T18:32:04.351Z,35.92
2022-12-04T18:34:31.461Z,30.17
2022-12-04T18:36:58.330Z,31.30
2022-12-04T18:39:25.980Z,30.25
2022-12-04T18:41:56.082Z,32.25
2022-12-04T18:44:23.666Z,31.10
2022-12-04T18:46:50.691Z,34.50
2022-12-04T18:49:17.626Z,29.50
2022-12-04T18:51:49.536Z,29.17
2022-12-04T18:54:25.088Z,27.98
2022-12-04T18:56:52.397Z,28.13
2022-12-04T18:59:22.198Z,33.55
2022-12-04T19:01:50.392Z,31.77
2022-12-04T19:04:19.599Z,29.63
2022-12-04T19:06:48.549Z,29.83
2022-12-04T19:09:19.234Z,30.98
2022-12-04T19:11:46.363Z,31.30
2022-12-04T19:14:22.727Z,31.15
2022-12-04T19:16:51.113Z,29.20
2022-12-04T19:19:18.078Z,31.08
2022-12-04T19:21:45.168Z,35.85
2022-12-04T19:24:12.380Z,29.85
2022-12-04T19:26:39.287Z,28.65
2022-12-04T19:29:07.070Z,29.30
2022-12-04T19:31:37.552Z,34.83
2022-12-04T19:34:06.262Z,34.50
2022-12-04T19:36:34.645Z,34.63
2022-12-04T19:39:02.932Z,33.38
2022-12-04T19:41:31.405Z,33.63
2022-12-04T19:44:00.661Z,34.55
2022-12-04T19:46:30.969Z,33.80
2022-12-04T19:49:01.651Z,29.73
2022-12-04T19:51:31.933Z,29.00
2022-12-04T19:53:59.055Z,33.83
2022-12-04T19:56:27.148Z,33.30
2022-12-04T19:58:56.404Z,32.80
2022-12-04T20:01:26.726Z,29.08
2022-12-04T20:03:54.713Z,27.50
2022-12-04T20:06:25.035Z,33.50
2022-12-04T20:08:57.994Z,33.58
2022-12-04T20:11:25.387Z,34.40
2022-12-04T20:13:55.578Z,31.38
2022-12-04T20:16:27.341Z,33.38
2022-12-04T20:18:54.427Z,30.55
2022-12-04T20:21:25.634Z,30.17
2022-12-04T20:23:54.010Z,26.95
2022-12-04T20:26:27.987Z,31.27
2022-12-04T20:28:59.501Z,26.27
2022-12-04T20:31:29.746Z,33.97
2022-12-04T20:33:59.574Z,29.02
2022-12-04T20:36:28.951Z,27.65
2022-12-04T20:39:00.636Z,32.17
2022-12-04T20:41:29.412Z,29.75
2022-12-04T20:43:59.116Z,33.13
2022-12-04T20:46:31.684Z,27.90
2022-12-04T20:49:00.518Z,30.30
2022-12-04T20:51:33.067Z,31.93
2022-12-04T20:54:01.003Z,29.83
2022-12-04T20:56:30.961Z,28.40
2022-12-04T20:59:00.104Z,31.58
2022-12-04T21:01:29.903Z,31.27
2022-12-04T21:03:58.872Z,31.30
2022-12-04T21:06:34.600Z,34.08
2022-12-04T21:09:22.917Z,28.10
2022-12-04T21:11:54.901Z,34.58
2022-12-04T21:14:48.709Z,32.13
2022-12-04T21:17:18.980Z,31.92
2022-12-04T21:19:47.555Z,31.48
2022-12-04T21:22:15.128Z,30.15
2022-12-04T21:24:42.351Z,34.53
2022-12-04T21:27:13.300Z,32.00
2022-12-04T21:29:43.631Z,33.72
2022-12-04T21:32:10.494Z,34.42
2022-12-04T21:34:37.310Z,29.38
2022-12-04T21:37:04.239Z,29.20
2022-12-04T21:39:31.191Z,30.70
2022-12-04T21:42:16.452Z,30.85
2022-12-04T21:44:44.106Z,32.05
2022-12-04T21:47:10.968Z,28.98
2022-12-04T21:49:37.878Z,30.67
2022-12-04T21:52:04.849Z,31.25
2022-12-04T21:54:31.763Z,28.60
2022-12-04T21:56:58.617Z,27.60
2022-12-04T21:59:26.034Z,32.72
2022-12-04T22:01:53.089Z,29.48
2022-12-04T22:04:20.785Z,31.00
2022-12-04T22:06:47.681Z,28.42
2022-12-04T22:09:14.607Z,36.78
2022-12-04T22:11:42.202Z,33.85
2022-12-04T22:14:10.101Z,33.25
2022-12-04T22:16:41.895Z,30.27
2022-12-04T22:19:11.561Z,33.78
2022-12-04T22:21:39.087Z,30.85
2022-12-04T22:24:06.553Z,34.40
2022-12-04T22:26:33.455Z,29.00
2022-12-04T22:29:00.633Z,35.35
2022-12-04T22:31:29.547Z,31.08
2022-12-04T22:33:58.454Z,36.53
2022-12-04T22:36:28.660Z,29.77
2022-12-04T22:39:11.387Z,38.25
2022-12-04T22:41:38.854Z,28.23
2022-12-04T22:44:06.224Z,33.90
2022-12-04T22:46:33.382Z,30.80
2022-12-04T22:49:00.548Z,33.17
2022-12-04T22:51:28.049Z,31.30
2022-12-04T22:53:57.207Z,33.10
2022-12-04T22:56:25.292Z,31.50
2022-12-04T22:58:52.619Z,32.67
2022-12-04T23:01:22.545Z,31.77
2022-12-04T23:03:50.295Z,32.65
2022-12-04T23:06:18.756Z,26.00
2022-12-04T23:08:46.229Z,28.58
2022-12-04T23:11:16.158Z,29.05
2022-12-04T23:13:43.388Z,30.98
2022-12-04T23:16:14.266Z,31.23
2022-12-04T23:18:43.785Z,33.25
2022-12-04T23:21:13.257Z,31.45
2022-12-04T23:23:42.140Z,34.20
2022-12-04T23:26:17.006Z,30.80
2022-12-04T23:28:43.973Z,30.05
2022-12-04T23:31:11.698Z,28.55
2022-12-04T23:33:39.942Z,30.95
2022-12-04T23:36:08.832Z,32.10
2022-12-04T23:38:37.390Z,31.13
2022-12-04T23:41:07.375Z,27.75
2022-12-04T23:43:35.296Z,29.15
2022-12-04T23:46:08.966Z,27.80
2022-12-04T23:48:38.510Z,29.48
2022-12-04T23:51:06.359Z,29.17
2022-12-04T23:53:33.437Z,29.40
2022-12-04T23:56:13.355Z,27.73
2022-12-04T23:58:41.394Z,22.67
